Aviation Digital Data Service (ADDS)

Output produced by METARs form (1714 UTC 24 February 2017)
found at http://aviationweather.gov/adds/metars/
 
KSFO 241458Z 2415/2518 28005KT P6SM SKC 
     FM241700 31007KT P6SM FEW025 SCT150 
     FM242100 30012KT P6SM FEW025 BKN150 
     FM250600 28007KT P6SM SCT020 BKN060 
     FM251000 26004KT P6SM BKN030 BKN060 
     FM251600 VRB04KT P6SM SCT030 SCT080